createdAt,value
2023-05-06T00:00:51.483Z,3.20
2023-05-06T00:03:23.031Z,2.17
2023-05-06T00:05:54.688Z,5.55
2023-05-06T00:08:26.185Z,2.70
2023-05-06T00:10:57.797Z,2.95
2023-05-06T00:13:29.341Z,2.15
2023-05-06T00:16:01.169Z,1.88
2023-05-06T00:18:32.843Z,2.50
2023-05-06T00:21:04.438Z,3.15
2023-05-06T00:23:35.946Z,4.20
2023-05-06T00:26:07.627Z,2.80
2023-05-06T00:28:39.167Z,1.17
2023-05-06T00:31:10.683Z,2.53
2023-05-06T00:33:42.237Z,2.45
2023-05-06T00:36:13.750Z,2.30
2023-05-06T00:38:45.237Z,5.07
2023-05-06T00:41:16.729Z,4.93
2023-05-06T00:43:48.243Z,1.98
2023-05-06T00:46:19.833Z,2.10
2023-05-06T00:48:51.649Z,1.98
2023-05-06T00:51:23.479Z,1.15
2023-05-06T00:53:55.169Z,2.60
2023-05-06T00:56:27.039Z,3.70
2023-05-06T00:58:58.557Z,1.25
2023-05-06T01:01:31.593Z,1.33
2023-05-06T01:04:03.486Z,2.45
2023-05-06T01:06:50.055Z,2.28
2023-05-06T01:09:33.945Z,1.88
2023-05-06T01:12:24.071Z,1.75
2023-05-06T01:15:09.670Z,1.67
2023-05-06T01:17:45.147Z,2.80
2023-05-06T01:20:20.973Z,5.60
2023-05-06T01:22:53.666Z,1.88
2023-05-06T01:25:25.200Z,1.30
2023-05-06T01:27:56.711Z,1.10
2023-05-06T01:30:35.274Z,2.10
2023-05-06T01:33:12.475Z,2.10
2023-05-06T01:36:08.708Z,3.00
2023-05-06T01:38:52.782Z,4.13
2023-05-06T01:41:25.681Z,4.95
2023-05-06T01:44:00.292Z,6.65
2023-05-06T01:46:32.781Z,2.00
2023-05-06T01:49:08.166Z,3.60
2023-05-06T01:51:39.700Z,3.85
2023-05-06T01:54:11.320Z,3.33
2023-05-06T01:56:42.937Z,2.85
2023-05-06T01:59:14.511Z,2.40
2023-05-06T02:01:46.092Z,2.17
2023-05-06T02:04:17.619Z,2.03
2023-05-06T02:06:49.197Z,3.40
2023-05-06T02:09:20.702Z,1.80
2023-05-06T02:11:52.217Z,1.48
2023-05-06T02:14:23.765Z,3.00
2023-05-06T02:16:55.512Z,1.92
2023-05-06T02:19:26.997Z,2.05
2023-05-06T02:21:58.497Z,3.40
2023-05-06T02:24:30.118Z,2.70
2023-05-06T02:27:02.244Z,1.83
2023-05-06T02:29:34.242Z,2.85
2023-05-06T02:32:06.927Z,3.05
2023-05-06T02:34:38.428Z,1.88
2023-05-06T02:37:09.942Z,1.40
2023-05-06T02:39:41.416Z,2.20
2023-05-06T02:42:16.206Z,1.83
2023-05-06T02:44:47.942Z,3.75
2023-05-06T02:47:19.505Z,2.40
2023-05-06T02:49:51.104Z,2.47
2023-05-06T02:52:22.780Z,1.90
2023-05-06T02:54:54.368Z,1.30
2023-05-06T02:57:26.331Z,2.65
2023-05-06T02:59:58.010Z,1.58
2023-05-06T03:02:29.553Z,6.65
2023-05-06T03:05:01.049Z,2.17
2023-05-06T03:07:32.599Z,1.92
2023-05-06T03:10:05.017Z,2.85
2023-05-06T03:12:36.596Z,3.33
2023-05-06T03:15:08.838Z,2.78
2023-05-06T03:17:40.638Z,5.43
2023-05-06T03:20:12.904Z,3.58
2023-05-06T03:25:16.092Z,2.88
2023-05-06T03:27:47.604Z,3.70
2023-05-06T03:30:19.130Z,2.13
2023-05-06T03:32:50.733Z,2.28
2023-05-06T03:35:22.334Z,1.45
2023-05-06T03:37:53.859Z,2.45
2023-05-06T03:40:25.547Z,2.28
2023-05-06T03:42:57.074Z,1.98
2023-05-06T03:45:28.675Z,1.98
2023-05-06T03:48:00.229Z,8.55
2023-05-06T03:50:31.878Z,1.45
2023-05-06T03:53:03.476Z,4.18
2023-05-06T03:55:36.138Z,2.30
2023-05-06T03:58:07.631Z,14.70
2023-05-06T04:00:39.099Z,3.35
2023-05-06T04:03:11.076Z,1.20
2023-05-06T04:05:42.635Z,2.20
2023-05-06T04:08:14.204Z,3.42
2023-05-06T04:10:45.659Z,1.52
2023-05-06T04:13:18.006Z,4.03
2023-05-06T04:15:50.491Z,5.50
2023-05-06T04:20:53.906Z,1.80
2023-05-06T04:23:25.475Z,2.45
2023-05-06T04:25:57.960Z,5.00
2023-05-06T04:28:29.618Z,1.73
2023-05-06T04:31:02.312Z,4.72
2023-05-06T04:33:34.323Z,1.77
2023-05-06T04:36:06.164Z,2.25
2023-05-06T04:38:37.865Z,1.95
2023-05-06T04:41:09.481Z,3.70
2023-05-06T04:43:41.483Z,1.42
2023-05-06T04:46:13.105Z,1.25
2023-05-06T04:48:44.630Z,1.33
2023-05-06T04:51:16.142Z,1.40
2023-05-06T04:53:47.743Z,2.10
2023-05-06T04:56:19.343Z,1.30
2023-05-06T04:58:50.868Z,1.67
2023-05-06T05:01:22.500Z,2.88
2023-05-06T05:03:54.016Z,4.38
2023-05-06T05:06:25.652Z,5.63
2023-05-06T05:08:57.273Z,3.95
2023-05-06T05:11:28.793Z,2.33
2023-05-06T05:14:01.823Z,1.52
2023-05-06T05:16:34.112Z,5.88
2023-05-06T05:19:08.948Z,5.88
2023-05-06T05:21:40.834Z,2.50
2023-05-06T05:24:12.409Z,1.60
2023-05-06T05:26:43.895Z,1.52
2023-05-06T05:29:15.377Z,2.63
2023-05-06T05:31:47.034Z,1.10
2023-05-06T05:34:18.590Z,1.65
2023-05-06T05:36:50.069Z,1.15
2023-05-06T05:39:21.570Z,3.00
2023-05-06T05:41:53.179Z,3.30
2023-05-06T05:44:24.737Z,1.70
2023-05-06T05:46:56.295Z,4.28
2023-05-06T05:49:27.857Z,1.45
2023-05-06T05:51:59.472Z,8.60
2023-05-06T05:54:30.997Z,2.83
2023-05-06T05:57:02.543Z,3.25
2023-05-06T05:59:34.013Z,2.47
2023-05-06T06:02:06.223Z,4.18
2023-05-06T06:07:09.371Z,4.05
2023-05-06T06:09:41.678Z,4.47
2023-05-06T06:12:13.201Z,3.92
2023-05-06T06:14:48.000Z,8.07
2023-05-06T06:17:19.693Z,4.22
2023-05-06T06:19:51.272Z,2.88
2023-05-06T06:22:23.519Z,5.03
2023-05-06T06:27:26.493Z,2.47
2023-05-06T06:29:58.029Z,3.17
2023-05-06T06:32:29.633Z,3.67
2023-05-06T06:35:01.228Z,2.90
2023-05-06T06:37:32.955Z,3.40
2023-05-06T06:40:04.942Z,4.30
2023-05-06T06:42:36.944Z,4.75
2023-05-06T06:45:09.692Z,4.63
2023-05-06T06:47:41.527Z,5.85
2023-05-06T06:50:13.164Z,5.13
2023-05-06T06:52:44.725Z,5.45
2023-05-06T06:55:16.234Z,4.35
2023-05-06T06:57:48.035Z,6.75
2023-05-06T07:00:19.599Z,4.28
2023-05-06T07:02:51.162Z,6.40
2023-05-06T07:05:22.912Z,8.05
2023-05-06T07:07:55.431Z,5.03
2023-05-06T07:10:27.304Z,6.93
2023-05-06T07:12:58.882Z,5.07
2023-05-06T07:15:30.588Z,5.00
2023-05-06T07:18:02.205Z,4.97
2023-05-06T07:20:33.719Z,11.40
2023-05-06T07:23:05.264Z,5.22
2023-05-06T07:25:36.837Z,5.53
2023-05-06T07:28:08.392Z,3.40
2023-05-06T07:30:39.888Z,9.45
2023-05-06T07:33:11.391Z,5.00
2023-05-06T07:35:43.062Z,5.90
2023-05-06T07:38:14.931Z,4.05
2023-05-06T07:40:46.538Z,5.43
2023-05-06T07:43:18.076Z,5.75
2023-05-06T07:45:50.713Z,3.58
2023-05-06T07:48:22.296Z,4.03
2023-05-06T07:50:53.836Z,5.10
2023-05-06T07:53:26.175Z,4.43
2023-05-06T07:56:02.335Z,5.60
2023-05-06T07:58:33.954Z,5.63
2023-05-06T08:01:06.203Z,7.63
2023-05-06T08:03:38.040Z,3.95
2023-05-06T08:06:09.793Z,3.90
2023-05-06T08:08:41.459Z,2.85
2023-05-06T08:11:12.982Z,3.30
2023-05-06T08:13:44.476Z,3.90
2023-05-06T08:16:16.368Z,5.40
2023-05-06T08:18:47.914Z,2.60
2023-05-06T08:21:19.419Z,4.43
2023-05-06T08:23:50.972Z,5.00
2023-05-06T08:26:22.474Z,3.55
2023-05-06T08:28:56.193Z,4.05
2023-05-06T08:31:27.940Z,5.65
2023-05-06T08:33:59.622Z,2.67
2023-05-06T08:36:31.168Z,4.85
2023-05-06T08:39:02.869Z,3.47
2023-05-06T08:41:36.997Z,2.70
2023-05-06T08:44:08.751Z,5.63
2023-05-06T08:46:40.236Z,2.90
2023-05-06T08:49:11.824Z,4.43
2023-05-06T08:51:44.502Z,3.80
2023-05-06T08:54:17.977Z,2.63
2023-05-06T08:56:54.766Z,4.85
2023-05-06T08:59:32.954Z,5.68
2023-05-06T09:02:05.201Z,4.32
2023-05-06T09:04:37.147Z,2.33
2023-05-06T09:07:08.649Z,3.05
2023-05-06T09:09:40.834Z,4.38
2023-05-06T09:14:46.647Z,2.67
2023-05-06T09:17:27.914Z,4.20
2023-05-06T09:19:59.565Z,4.60
2023-05-06T09:22:31.181Z,2.25
2023-05-06T09:25:03.401Z,3.05
2023-05-06T09:27:36.921Z,2.05
2023-05-06T09:30:13.913Z,2.53
2023-05-06T09:32:49.698Z,3.25
2023-05-06T09:35:21.409Z,2.10
2023-05-06T09:37:53.171Z,6.50
2023-05-06T09:40:24.850Z,2.00
2023-05-06T09:42:56.654Z,3.05
2023-05-06T09:45:29.369Z,3.63
2023-05-06T09:48:01.166Z,2.42
2023-05-06T09:50:33.265Z,4.35
2023-05-06T09:53:05.810Z,4.20
2023-05-06T09:55:37.640Z,3.10
2023-05-06T09:58:10.065Z,5.22
2023-05-06T10:00:43.286Z,3.70
2023-05-06T10:03:15.741Z,3.08
2023-05-06T10:05:47.687Z,5.57
2023-05-06T10:08:19.365Z,2.35
2023-05-06T10:10:51.730Z,4.38
2023-05-06T10:13:26.844Z,4.90
2023-05-06T10:16:01.975Z,4.80
2023-05-06T10:18:37.029Z,2.30
2023-05-06T10:21:19.706Z,5.00
2023-05-06T10:23:57.362Z,2.35
2023-05-06T10:26:30.556Z,4.90
2023-05-06T10:29:04.703Z,1.55
2023-05-06T10:31:44.250Z,4.90
2023-05-06T10:34:19.508Z,3.95
2023-05-06T10:36:57.366Z,3.97
2023-05-06T10:39:29.400Z,1.73
2023-05-06T10:42:02.383Z,4.47
2023-05-06T10:44:56.265Z,4.30
2023-05-06T10:47:27.981Z,3.05
2023-05-06T10:50:17.966Z,2.28
2023-05-06T10:52:58.137Z,1.73
2023-05-06T10:55:35.443Z,3.08
2023-05-06T10:58:15.054Z,2.15
2023-05-06T11:00:58.018Z,7.20
2023-05-06T11:03:32.355Z,2.30
2023-05-06T11:06:04.142Z,1.95
2023-05-06T11:08:36.089Z,1.23
2023-05-06T11:11:45.675Z,5.25
2023-05-06T11:14:29.066Z,6.13
2023-05-06T11:17:05.046Z,3.92
2023-05-06T11:19:38.306Z,2.10
2023-05-06T11:22:40.142Z,2.53
2023-05-06T11:25:11.788Z,2.15
2023-05-06T11:27:43.253Z,2.75
2023-05-06T11:30:15.925Z,3.10
2023-05-06T11:32:47.798Z,3.85
2023-05-06T11:35:19.542Z,1.92
2023-05-06T11:37:52.134Z,4.30
2023-05-06T11:40:23.830Z,3.47
2023-05-06T11:42:55.438Z,3.67
2023-05-06T11:45:26.968Z,3.92
2023-05-06T11:47:58.675Z,2.30
2023-05-06T11:50:30.705Z,3.97
2023-05-06T11:55:35.168Z,2.38
2023-05-06T12:00:51.771Z,2.85
2023-05-06T12:03:25.178Z,3.03
2023-05-06T12:05:57.619Z,1.58
2023-05-06T12:08:34.777Z,3.25
2023-05-06T12:11:11.243Z,4.28
2023-05-06T12:13:42.778Z,2.60
2023-05-06T12:16:15.658Z,6.95
2023-05-06T12:18:48.422Z,5.22
2023-05-06T12:21:24.023Z,1.77
2023-05-06T12:23:59.326Z,1.63
2023-05-06T12:26:52.101Z,1.05
2023-05-06T12:29:23.714Z,2.67
2023-05-06T12:32:11.834Z,2.20
2023-05-06T12:34:43.417Z,1.20
2023-05-06T12:37:27.966Z,1.35
2023-05-06T12:40:00.064Z,1.52
2023-05-06T12:42:31.968Z,1.55
2023-05-06T12:45:15.857Z,1.35
2023-05-06T12:47:55.496Z,1.75
2023-05-06T12:50:40.160Z,2.08
2023-05-06T12:53:13.434Z,2.15
2023-05-06T12:55:46.276Z,1.05
2023-05-06T12:58:19.493Z,2.45
2023-05-06T13:00:51.144Z,1.40
2023-05-06T13:03:22.742Z,1.20
2023-05-06T13:05:54.752Z,2.25
2023-05-06T13:10:59.632Z,1.05
2023-05-06T13:13:31.196Z,2.58
2023-05-06T13:16:02.758Z,2.40
2023-05-06T13:18:34.285Z,2.30
2023-05-06T13:21:05.878Z,1.67
2023-05-06T13:23:40.077Z,1.13
2023-05-06T13:26:11.648Z,7.47
2023-05-06T13:28:43.139Z,0.75
2023-05-06T13:31:14.711Z,1.95
2023-05-06T13:33:46.239Z,1.42
2023-05-06T13:36:17.778Z,2.40
2023-05-06T13:38:49.522Z,2.33
2023-05-06T13:41:21.466Z,2.25
2023-05-06T13:43:52.971Z,7.00
2023-05-06T13:46:24.460Z,5.78
2023-05-06T13:48:56.016Z,1.88
2023-05-06T13:51:29.904Z,2.28
2023-05-06T13:54:02.303Z,2.67
2023-05-06T13:56:34.758Z,1.00
2023-05-06T13:59:08.004Z,1.65
2023-05-06T14:01:40.550Z,1.45
2023-05-06T14:04:12.337Z,2.33
2023-05-06T14:06:43.895Z,1.65
2023-05-06T14:09:15.660Z,3.75
2023-05-06T14:11:47.290Z,2.33
2023-05-06T14:14:18.750Z,3.63
2023-05-06T14:16:53.767Z,3.05
2023-05-06T14:19:25.721Z,1.88
2023-05-06T14:24:28.921Z,2.92
2023-05-06T14:27:00.504Z,1.27
2023-05-06T14:29:32.391Z,0.98
2023-05-06T14:32:04.114Z,0.98
2023-05-06T14:34:36.859Z,2.50
2023-05-06T14:37:08.408Z,2.78
2023-05-06T14:39:39.923Z,1.52
2023-05-06T14:42:11.508Z,1.63
2023-05-06T14:44:43.438Z,1.77
2023-05-06T14:47:14.933Z,5.05
2023-05-06T14:49:46.399Z,2.33
2023-05-06T14:52:18.917Z,0.80
2023-05-06T14:54:50.527Z,1.88
2023-05-06T14:57:22.450Z,1.15
2023-05-06T14:59:54.468Z,2.63
2023-05-06T15:02:26.391Z,0.80
2023-05-06T15:04:58.201Z,2.22
2023-05-06T15:10:02.427Z,4.25
2023-05-06T15:12:36.238Z,1.38
2023-05-06T15:15:08.579Z,1.45
2023-05-06T15:17:41.709Z,1.42
2023-05-06T15:20:13.424Z,1.02
2023-05-06T15:22:45.059Z,2.70
2023-05-06T15:25:30.232Z,2.20
2023-05-06T15:28:05.880Z,1.45
2023-05-06T15:30:38.380Z,1.75
2023-05-06T15:33:09.988Z,1.35
2023-05-06T15:35:41.499Z,0.90
2023-05-06T15:38:12.986Z,5.68
2023-05-06T15:40:51.054Z,2.83
2023-05-06T15:43:24.685Z,2.03
2023-05-06T15:45:57.636Z,4.07
2023-05-06T15:48:30.325Z,5.03
2023-05-06T15:51:01.840Z,1.05
2023-05-06T15:53:33.352Z,4.13
2023-05-06T15:58:41.805Z,2.33
2023-05-06T16:01:14.796Z,1.77
2023-05-06T16:03:46.574Z,0.63
2023-05-06T16:06:18.256Z,1.38
2023-05-06T16:08:50.769Z,0.80
2023-05-06T16:11:23.102Z,2.17
2023-05-06T16:13:54.628Z,1.17
2023-05-06T16:16:26.157Z,4.07
2023-05-06T16:18:58.068Z,1.20
2023-05-06T16:21:29.722Z,1.05
2023-05-06T16:24:02.285Z,2.30
2023-05-06T16:26:33.815Z,0.70
2023-05-06T16:29:05.415Z,4.88
2023-05-06T16:34:09.389Z,1.45
2023-05-06T16:36:42.014Z,3.72
2023-05-06T16:39:13.494Z,1.23
2023-05-06T16:41:47.170Z,1.45
2023-05-06T16:44:18.782Z,1.80
2023-05-06T16:46:50.294Z,0.77
2023-05-06T16:49:22.010Z,1.65
2023-05-06T16:51:54.512Z,2.97
2023-05-06T16:54:26.784Z,2.35
2023-05-06T16:56:58.408Z,2.90
2023-05-06T16:59:30.079Z,1.38
2023-05-06T17:02:01.667Z,3.78
2023-05-06T17:04:33.174Z,1.83
2023-05-06T17:07:04.931Z,1.67
2023-05-06T17:09:37.049Z,1.40
2023-05-06T17:12:08.914Z,1.30
2023-05-06T17:17:12.924Z,1.13
2023-05-06T17:19:44.592Z,1.17
2023-05-06T17:22:16.081Z,4.22
2023-05-06T17:24:47.660Z,1.35
2023-05-06T17:27:19.280Z,1.20
2023-05-06T17:29:51.988Z,1.25
2023-05-06T17:32:23.499Z,1.25
2023-05-06T17:34:55.043Z,1.13
2023-05-06T17:37:26.603Z,4.97
2023-05-06T17:39:58.930Z,1.85
2023-05-06T17:42:30.483Z,2.08
2023-05-06T17:45:02.126Z,4.15
2023-05-06T17:47:34.230Z,3.72
2023-05-06T17:50:05.986Z,1.00
2023-05-06T17:52:37.567Z,1.33
2023-05-06T17:55:16.366Z,1.95
2023-05-06T17:57:49.429Z,0.57
2023-05-06T18:00:21.697Z,1.88
2023-05-06T18:02:53.566Z,1.23
2023-05-06T18:05:27.057Z,1.02
2023-05-06T18:07:58.865Z,1.08
2023-05-06T18:10:30.470Z,1.85
2023-05-06T18:13:04.046Z,3.42
2023-05-06T18:15:35.900Z,2.42
2023-05-06T18:18:07.582Z,1.00
2023-05-06T18:20:41.214Z,2.17
2023-05-06T18:23:12.752Z,2.28
2023-05-06T18:25:44.612Z,1.95
2023-05-06T18:28:16.836Z,2.50
2023-05-06T18:30:48.380Z,2.25
2023-05-06T18:33:20.550Z,5.93
2023-05-06T18:35:52.166Z,2.10
2023-05-06T18:38:26.497Z,3.08
2023-05-06T18:40:59.342Z,5.18
2023-05-06T18:43:31.274Z,19.85
2023-05-06T18:46:05.740Z,18.02
2023-05-06T18:48:38.316Z,19.92
2023-05-06T18:51:17.225Z,22.02
2023-05-06T18:53:49.237Z,15.02
2023-05-06T18:56:21.656Z,13.88
2023-05-06T18:58:53.280Z,12.43
2023-05-06T19:01:25.441Z,14.00
2023-05-06T19:03:57.506Z,19.73
2023-05-06T19:06:29.063Z,9.43
2023-05-06T19:09:01.209Z,16.08
2023-05-06T19:11:33.897Z,9.77
2023-05-06T19:14:05.563Z,14.73
2023-05-06T19:16:37.201Z,14.95
2023-05-06T19:19:09.351Z,14.23
2023-05-06T19:24:12.903Z,25.60
2023-05-06T19:26:45.021Z,95.03
2023-05-06T19:31:47.835Z,71.93
2023-05-06T19:34:19.401Z,47.60
2023-05-06T19:36:50.888Z,38.35
2023-05-06T19:39:22.436Z,37.67
2023-05-06T19:41:55.554Z,35.80
2023-05-06T19:44:27.121Z,39.22
2023-05-06T19:46:58.764Z,41.20
2023-05-06T19:49:32.143Z,43.90
2023-05-06T19:52:03.779Z,62.22
2023-05-06T19:54:35.769Z,59.35
2023-05-06T19:57:07.277Z,47.45
2023-05-06T19:59:39.035Z,47.53
2023-05-06T20:02:13.400Z,49.17
2023-05-06T20:04:45.129Z,39.05
2023-05-06T20:07:17.300Z,37.30
2023-05-06T20:12:27.368Z,24.67
2023-05-06T20:14:59.424Z,19.02
2023-05-06T20:17:32.782Z,16.05
2023-05-06T20:20:09.761Z,16.65
2023-05-06T20:22:41.477Z,32.03
2023-05-06T20:25:17.470Z,33.03
2023-05-06T20:27:49.018Z,32.40
2023-05-06T20:30:22.073Z,28.73
2023-05-06T20:32:53.780Z,22.15
2023-05-06T20:35:26.109Z,21.23
2023-05-06T20:37:57.667Z,15.63
2023-05-06T20:40:29.334Z,16.73
2023-05-06T20:43:01.084Z,16.52
2023-05-06T20:45:32.747Z,10.60
2023-05-06T20:48:06.162Z,12.57
2023-05-06T20:50:41.356Z,10.95
2023-05-06T20:53:13.380Z,12.23
2023-05-06T20:55:46.540Z,11.55
2023-05-06T20:58:18.160Z,9.30
2023-05-06T21:00:50.499Z,14.40
2023-05-06T21:03:23.113Z,17.25
2023-05-06T21:05:55.824Z,23.70
2023-05-06T21:08:28.435Z,18.05
2023-05-06T21:11:00.983Z,14.20
2023-05-06T21:13:32.565Z,13.70
2023-05-06T21:16:04.625Z,10.70
2023-05-06T21:18:36.827Z,13.38
2023-05-06T21:21:10.029Z,17.20
2023-05-06T21:23:42.617Z,14.73
2023-05-06T21:26:14.197Z,8.32
2023-05-06T21:28:53.733Z,8.52
2023-05-06T21:31:26.936Z,9.63
2023-05-06T21:33:59.872Z,9.27
2023-05-06T21:36:31.939Z,9.30
2023-05-06T21:39:14.575Z,7.47
2023-05-06T21:41:46.798Z,8.48
2023-05-06T21:46:50.354Z,7.85
2023-05-06T21:49:22.366Z,9.05
2023-05-06T21:51:54.032Z,8.45
2023-05-06T21:54:26.964Z,10.95
2023-05-06T21:56:59.185Z,9.55
2023-05-06T22:02:03.385Z,8.82
2023-05-06T22:04:35.020Z,7.00
2023-05-06T22:07:07.962Z,7.18
2023-05-06T22:09:39.534Z,5.18
2023-05-06T22:12:12.966Z,9.68
2023-05-06T22:14:44.512Z,17.63
2023-05-06T22:17:16.120Z,7.50
2023-05-06T22:19:47.838Z,5.57
2023-05-06T22:24:51.489Z,5.32
2023-05-06T22:27:22.986Z,8.13
2023-05-06T22:29:54.538Z,5.63
2023-05-06T22:32:26.349Z,4.75
2023-05-06T22:34:57.894Z,8.77
2023-05-06T22:37:29.431Z,4.53
2023-05-06T22:40:01.337Z,4.85
2023-05-06T22:42:33.255Z,4.35
2023-05-06T22:45:05.970Z,4.13
2023-05-06T22:47:37.553Z,4.78
2023-05-06T22:50:09.505Z,4.00
2023-05-06T22:52:41.074Z,5.90
2023-05-06T22:55:12.907Z,4.13
2023-05-06T22:57:44.922Z,4.03
2023-05-06T23:00:17.415Z,11.65
2023-05-06T23:02:49.122Z,8.45
2023-05-06T23:05:20.860Z,7.80
2023-05-06T23:07:52.381Z,4.10
2023-05-06T23:10:23.878Z,5.32
2023-05-06T23:12:55.434Z,9.00
2023-05-06T23:15:27.010Z,5.90
2023-05-06T23:17:58.564Z,6.10
2023-05-06T23:20:30.175Z,5.53
2023-05-06T23:23:01.826Z,4.63
2023-05-06T23:25:33.378Z,4.75
2023-05-06T23:28:05.162Z,5.20
2023-05-06T23:30:36.739Z,9.23
2023-05-06T23:33:08.880Z,5.68
2023-05-06T23:38:11.964Z,6.78
2023-05-06T23:40:43.579Z,6.32
2023-05-06T23:43:15.089Z,6.05
2023-05-06T23:45:46.597Z,5.53
2023-05-06T23:48:18.094Z,9.02
2023-05-06T23:50:49.667Z,5.80
2023-05-06T23:53:21.350Z,7.38
2023-05-06T23:55:52.988Z,5.45
2023-05-06T23:58:24.513Z,6.30
